createdAt,value
2018-03-28T00:01:37.625Z,1.90
2018-03-28T00:04:04.362Z,2.10
2018-03-28T00:06:31.087Z,2.00
2018-03-28T00:08:57.789Z,1.97
2018-03-28T00:11:24.537Z,1.90
2018-03-28T00:13:51.248Z,1.87
2018-03-28T00:16:17.997Z,2.30
2018-03-28T00:18:44.701Z,2.33
2018-03-28T00:21:11.419Z,2.10
2018-03-28T00:23:38.134Z,2.10
2018-03-28T00:26:04.839Z,1.90
2018-03-28T00:28:31.572Z,2.37
2018-03-28T00:30:58.344Z,2.20
2018-03-28T00:33:25.068Z,2.47
2018-03-28T00:35:51.801Z,2.43
2018-03-28T00:38:18.514Z,2.00
2018-03-28T00:40:45.215Z,2.00
2018-03-28T00:43:11.917Z,2.03
2018-03-28T00:45:38.651Z,2.40
2018-03-28T00:48:05.383Z,1.90
2018-03-28T00:50:32.104Z,2.07
2018-03-28T00:52:58.809Z,2.00
2018-03-28T00:55:25.533Z,2.10
2018-03-28T00:57:52.255Z,1.87
2018-03-28T01:00:18.961Z,2.03
2018-03-28T01:02:45.666Z,2.03
2018-03-28T01:05:12.367Z,2.63
2018-03-28T01:07:39.084Z,2.37
2018-03-28T01:10:05.817Z,2.03
2018-03-28T01:12:32.521Z,1.83
2018-03-28T01:14:59.225Z,2.20
2018-03-28T01:17:25.945Z,2.23
2018-03-28T01:19:52.657Z,1.90
2018-03-28T01:22:19.387Z,1.77
2018-03-28T01:24:46.111Z,1.90
2018-03-28T01:27:12.842Z,2.40
2018-03-28T01:29:39.545Z,2.10
2018-03-28T01:32:06.269Z,2.27
2018-03-28T01:34:33.013Z,2.23
2018-03-28T01:36:59.718Z,2.20
2018-03-28T01:39:26.451Z,1.83
2018-03-28T01:41:53.149Z,1.87
2018-03-28T01:44:20.078Z,1.77
2018-03-28T01:46:46.813Z,2.07
2018-03-28T01:49:13.526Z,1.50
2018-03-28T01:51:40.225Z,1.80
2018-03-28T01:54:06.937Z,2.37
2018-03-28T01:56:33.641Z,1.60
2018-03-28T01:59:00.380Z,1.67
2018-03-28T02:01:27.095Z,1.53
2018-03-28T02:03:53.803Z,1.60
2018-03-28T02:06:20.521Z,1.57
2018-03-28T02:08:47.246Z,1.80
2018-03-28T02:11:13.955Z,1.60
2018-03-28T02:13:40.660Z,1.63
2018-03-28T02:16:07.362Z,1.40
2018-03-28T02:18:34.076Z,1.47
2018-03-28T02:21:00.814Z,1.40
2018-03-28T02:23:27.529Z,1.50
2018-03-28T02:25:54.331Z,1.50
2018-03-28T02:28:21.062Z,1.60
2018-03-28T02:30:47.791Z,1.50
2018-03-28T02:33:14.499Z,1.20
2018-03-28T02:35:41.233Z,1.60
2018-03-28T02:38:07.968Z,1.67
2018-03-28T02:40:34.679Z,1.60
2018-03-28T02:43:01.379Z,1.60
2018-03-28T02:45:28.117Z,1.53
2018-03-28T02:47:54.857Z,1.87
2018-03-28T02:50:21.574Z,2.00
2018-03-28T02:52:48.283Z,1.50
2018-03-28T02:55:14.982Z,1.70
2018-03-28T02:57:41.689Z,1.93
2018-03-28T03:00:08.433Z,1.67
2018-03-28T03:02:35.143Z,1.93
2018-03-28T03:05:01.858Z,1.50
2018-03-28T03:07:28.568Z,1.90
2018-03-28T03:09:55.279Z,1.70
2018-03-28T03:12:22.025Z,1.60
2018-03-28T03:14:48.743Z,1.30
2018-03-28T03:17:15.456Z,1.43
2018-03-28T03:19:42.210Z,1.37
2018-03-28T03:22:08.921Z,1.40
2018-03-28T03:24:35.665Z,1.20
2018-03-28T03:27:02.373Z,1.40
2018-03-28T03:29:29.089Z,1.57
2018-03-28T03:31:55.808Z,1.57
2018-03-28T03:34:22.513Z,1.80
2018-03-28T03:36:49.273Z,1.50
2018-03-28T03:39:15.982Z,1.70
2018-03-28T03:41:42.684Z,1.70
2018-03-28T03:44:09.390Z,1.40
2018-03-28T03:46:36.115Z,1.67
2018-03-28T03:49:03.077Z,1.33
2018-03-28T03:51:29.818Z,1.30
2018-03-28T03:53:56.549Z,1.53
2018-03-28T03:56:23.249Z,1.53
2018-03-28T03:58:50.029Z,1.40
2018-03-28T04:01:16.756Z,1.40
2018-03-28T04:03:43.464Z,1.57
2018-03-28T04:06:10.190Z,1.53
2018-03-28T04:08:36.915Z,1.53
2018-03-28T04:11:03.633Z,2.00
2018-03-28T04:13:30.381Z,1.70
2018-03-28T04:15:57.120Z,1.20
2018-03-28T04:18:23.825Z,1.50
2018-03-28T04:20:50.532Z,1.60
2018-03-28T04:23:17.246Z,1.90
2018-03-28T04:25:43.978Z,1.53
2018-03-28T04:28:10.696Z,1.57
2018-03-28T04:30:37.414Z,1.77
2018-03-28T04:33:04.114Z,1.50
2018-03-28T04:35:30.814Z,1.73
2018-03-28T04:37:57.829Z,1.60
2018-03-28T04:40:24.563Z,1.37
2018-03-28T04:42:51.286Z,1.30
2018-03-28T04:45:18.019Z,1.60
2018-03-28T04:47:44.785Z,1.73
2018-03-28T04:50:11.553Z,1.93
2018-03-28T04:52:38.257Z,2.10
2018-03-28T04:55:04.966Z,2.17
2018-03-28T04:57:31.674Z,2.37
2018-03-28T04:59:58.409Z,2.23
2018-03-28T05:02:25.141Z,1.63
2018-03-28T05:04:51.847Z,2.00
2018-03-28T05:07:18.585Z,1.80
2018-03-28T05:09:45.308Z,2.23
2018-03-28T05:12:12.028Z,1.93
2018-03-28T05:14:38.790Z,1.90
2018-03-28T05:17:05.494Z,2.73
2018-03-28T05:19:32.202Z,3.07
2018-03-28T05:21:58.933Z,2.50
2018-03-28T05:24:25.652Z,3.50
2018-03-28T05:26:52.397Z,3.70
2018-03-28T05:29:19.208Z,3.93
2018-03-28T05:31:45.943Z,3.30
2018-03-28T05:34:12.655Z,3.60
2018-03-28T05:36:39.361Z,2.83
2018-03-28T05:39:06.145Z,3.10
2018-03-28T05:41:32.861Z,4.27
2018-03-28T05:43:59.572Z,3.70
2018-03-28T05:46:26.295Z,5.47
2018-03-28T05:48:53.006Z,5.57
2018-03-28T05:51:19.760Z,5.27
2018-03-28T05:53:46.490Z,4.97
2018-03-28T05:56:13.193Z,5.50
2018-03-28T05:58:39.898Z,4.63
2018-03-28T06:01:06.629Z,5.10
2018-03-28T06:03:33.338Z,5.23
2018-03-28T06:06:00.038Z,4.90
2018-03-28T06:08:26.761Z,5.03
2018-03-28T06:10:53.485Z,4.70
2018-03-28T06:13:20.231Z,4.73
2018-03-28T06:15:46.933Z,4.33
2018-03-28T06:18:13.641Z,3.63
2018-03-28T06:20:40.385Z,3.60
2018-03-28T06:23:07.087Z,4.57
2018-03-28T06:25:33.824Z,3.53
2018-03-28T06:28:00.662Z,4.20
2018-03-28T06:30:27.369Z,4.63
2018-03-28T06:32:54.069Z,3.27
2018-03-28T06:35:20.803Z,2.80
2018-03-28T06:37:47.717Z,2.70
2018-03-28T06:40:14.430Z,2.23
2018-03-28T06:42:41.205Z,2.60
2018-03-28T06:45:07.885Z,2.10
2018-03-28T06:47:34.595Z,2.20
2018-03-28T06:50:01.335Z,2.60
2018-03-28T06:52:28.101Z,3.07
2018-03-28T06:54:55.004Z,2.17
2018-03-28T06:57:21.724Z,2.17
2018-03-28T06:59:48.436Z,2.20
2018-03-28T07:02:15.177Z,2.47
2018-03-28T07:04:42.062Z,1.90
2018-03-28T07:07:08.772Z,1.80
2018-03-28T07:09:35.479Z,1.57
2018-03-28T07:12:02.183Z,1.83
2018-03-28T07:14:28.910Z,1.80
2018-03-28T07:16:55.616Z,1.70
2018-03-28T07:19:22.322Z,1.80
2018-03-28T07:21:49.033Z,1.60
2018-03-28T07:24:15.741Z,1.80
2018-03-28T07:26:42.505Z,1.53
2018-03-28T07:29:09.227Z,2.17
2018-03-28T07:31:36.829Z,1.70
2018-03-28T07:34:03.545Z,3.13
2018-03-28T07:36:30.241Z,1.67
2018-03-28T07:38:56.965Z,1.37
2018-03-28T07:41:23.672Z,1.60
2018-03-28T07:43:50.368Z,1.47
2018-03-28T07:46:17.066Z,1.30
2018-03-28T07:48:43.765Z,1.40
2018-03-28T07:51:10.498Z,1.67
2018-03-28T07:53:37.202Z,1.20
2018-03-28T07:56:03.908Z,1.27
2018-03-28T07:58:30.651Z,1.40
2018-03-28T08:00:57.366Z,1.00
2018-03-28T08:03:24.096Z,1.17
2018-03-28T08:05:50.801Z,1.30
2018-03-28T08:08:17.505Z,1.50
2018-03-28T08:10:44.206Z,1.43
2018-03-28T08:13:10.902Z,1.30
2018-03-28T08:15:37.631Z,1.50
2018-03-28T08:18:04.381Z,1.50
2018-03-28T08:20:31.091Z,1.63
2018-03-28T08:22:57.810Z,1.70
2018-03-28T08:25:24.521Z,1.60
2018-03-28T08:27:51.258Z,1.43
2018-03-28T08:30:17.963Z,2.00
2018-03-28T08:32:44.665Z,1.53
2018-03-28T08:35:11.376Z,2.13
2018-03-28T08:37:38.091Z,2.37
2018-03-28T08:40:04.828Z,1.80
2018-03-28T08:42:31.543Z,1.83
2018-03-28T08:44:58.249Z,1.40
2018-03-28T08:47:24.953Z,1.80
2018-03-28T08:49:51.667Z,1.30
2018-03-28T08:52:18.377Z,1.23
2018-03-28T08:54:45.105Z,1.83
2018-03-28T08:57:11.810Z,1.20
2018-03-28T08:59:38.522Z,1.60
2018-03-28T09:02:05.254Z,1.20
2018-03-28T09:04:31.956Z,1.30
2018-03-28T09:06:58.668Z,1.00
2018-03-28T09:09:25.416Z,1.10
2018-03-28T09:11:52.111Z,0.90
2018-03-28T09:14:18.813Z,1.50
2018-03-28T09:16:45.533Z,0.63
2018-03-28T09:19:12.293Z,0.97
2018-03-28T09:21:38.967Z,1.10
2018-03-28T09:24:05.685Z,1.40
2018-03-28T09:26:32.632Z,1.10
2018-03-28T09:28:59.329Z,1.23
2018-03-28T09:31:26.032Z,1.30
2018-03-28T09:33:52.724Z,1.33
2018-03-28T09:36:19.469Z,1.47
2018-03-28T09:38:46.170Z,1.40
2018-03-28T09:41:12.883Z,1.30
2018-03-28T09:43:39.597Z,1.00
2018-03-28T09:46:06.305Z,1.40
2018-03-28T09:48:33.042Z,1.07
2018-03-28T09:50:59.873Z,1.30
2018-03-28T09:53:26.588Z,1.40
2018-03-28T09:55:53.289Z,1.00
2018-03-28T09:58:19.985Z,1.13
2018-03-28T10:00:46.701Z,0.93
2018-03-28T10:03:13.404Z,0.90
2018-03-28T10:05:40.101Z,0.90
2018-03-28T10:08:06.798Z,1.00
2018-03-28T10:10:33.489Z,1.00
2018-03-28T10:13:00.219Z,0.87
2018-03-28T10:15:26.919Z,1.07
2018-03-28T10:17:53.612Z,0.70
2018-03-28T10:20:20.313Z,0.80
2018-03-28T10:22:47.012Z,1.00
2018-03-28T10:25:13.762Z,0.80
2018-03-28T10:27:40.461Z,0.80
2018-03-28T10:30:07.161Z,1.00
2018-03-28T10:32:33.857Z,0.77
2018-03-28T10:35:00.557Z,0.70
2018-03-28T10:37:27.285Z,0.83
2018-03-28T10:39:53.992Z,1.03
2018-03-28T10:42:20.693Z,0.70
2018-03-28T10:44:47.398Z,0.70
2018-03-28T10:47:14.093Z,0.60
2018-03-28T10:49:40.820Z,0.67
2018-03-28T10:52:07.522Z,0.77
2018-03-28T10:54:34.221Z,0.60
2018-03-28T10:57:01.024Z,0.60
2018-03-28T10:59:27.721Z,0.80
2018-03-28T11:01:54.445Z,0.67
2018-03-28T11:04:21.141Z,0.80
2018-03-28T11:06:47.849Z,0.80
2018-03-28T11:09:14.553Z,0.80
2018-03-28T11:11:41.250Z,0.97
2018-03-28T11:14:07.977Z,0.80
2018-03-28T11:16:34.733Z,1.00
2018-03-28T11:19:01.438Z,1.20
2018-03-28T11:21:28.145Z,1.03
2018-03-28T11:23:54.877Z,0.93
2018-03-28T11:26:21.611Z,0.90
2018-03-28T11:28:48.309Z,1.00
2018-03-28T11:31:15.005Z,0.90
2018-03-28T11:33:41.720Z,0.90
2018-03-28T11:36:08.417Z,1.10
2018-03-28T11:38:35.149Z,1.10
2018-03-28T11:41:01.847Z,0.80
2018-03-28T11:43:28.547Z,1.10
2018-03-28T11:45:55.243Z,0.97
2018-03-28T11:48:21.947Z,1.00
2018-03-28T11:50:48.675Z,1.03
2018-03-28T11:53:15.379Z,1.20
2018-03-28T11:55:42.085Z,0.87
2018-03-28T11:58:08.791Z,1.07
2018-03-28T12:00:35.489Z,1.10
2018-03-28T12:03:02.221Z,1.30
2018-03-28T12:05:28.925Z,0.83
2018-03-28T12:07:55.625Z,0.90
2018-03-28T12:10:22.323Z,1.00
2018-03-28T12:12:49.021Z,1.10
2018-03-28T12:15:15.746Z,0.90
2018-03-28T12:17:42.452Z,0.90
2018-03-28T12:20:09.149Z,0.90
2018-03-28T12:22:35.851Z,1.00
2018-03-28T12:25:02.585Z,1.10
2018-03-28T12:27:29.311Z,1.10
2018-03-28T12:29:56.014Z,1.40
2018-03-28T12:32:22.727Z,1.00
2018-03-28T12:34:49.455Z,1.07
2018-03-28T12:37:16.152Z,1.27
2018-03-28T12:39:42.884Z,0.90
2018-03-28T12:42:09.623Z,0.80
2018-03-28T12:44:36.317Z,0.73
2018-03-28T12:47:03.195Z,1.00
2018-03-28T12:49:29.914Z,0.97
2018-03-28T12:51:56.637Z,1.07
2018-03-28T12:54:23.385Z,1.00
2018-03-28T12:56:50.089Z,0.90
2018-03-28T12:59:16.792Z,0.90
2018-03-28T13:01:43.505Z,0.93
2018-03-28T13:04:10.507Z,0.90
2018-03-28T13:06:37.211Z,1.00
2018-03-28T13:09:03.925Z,1.00
2018-03-28T13:11:30.649Z,1.20
2018-03-28T13:13:57.348Z,1.30
2018-03-28T13:16:24.098Z,1.33
2018-03-28T13:18:50.803Z,1.03
2018-03-28T13:21:17.505Z,0.90
2018-03-28T13:23:44.205Z,0.93
2018-03-28T13:26:10.917Z,1.10
2018-03-28T13:28:37.647Z,0.90
2018-03-28T13:31:04.352Z,0.77
2018-03-28T13:33:31.062Z,1.20
2018-03-28T13:35:57.792Z,1.00
2018-03-28T13:38:24.493Z,0.90
2018-03-28T13:40:51.223Z,1.10
2018-03-28T13:43:17.958Z,1.80
2018-03-28T13:45:44.679Z,1.10
2018-03-28T13:48:11.400Z,0.90
2018-03-28T13:50:38.106Z,1.30
2018-03-28T13:53:04.837Z,0.80
2018-03-28T13:55:31.586Z,0.93
2018-03-28T13:57:58.288Z,1.30
2018-03-28T14:00:24.984Z,1.13
2018-03-28T14:02:51.705Z,1.20
2018-03-28T14:05:18.446Z,0.83
2018-03-28T14:07:45.152Z,1.00
2018-03-28T14:10:11.853Z,1.20
2018-03-28T14:12:38.556Z,0.90
2018-03-28T14:15:05.263Z,1.00
2018-03-28T14:17:31.992Z,1.03
2018-03-28T14:19:58.694Z,1.10
2018-03-28T14:22:25.401Z,1.17
2018-03-28T14:24:52.106Z,1.13
2018-03-28T14:27:18.805Z,0.90
2018-03-28T14:29:45.545Z,1.23
2018-03-28T14:32:12.249Z,1.27
2018-03-28T14:34:38.953Z,1.03
2018-03-28T14:37:05.663Z,0.97
2018-03-28T14:39:32.372Z,1.10
2018-03-28T14:41:59.104Z,1.03
2018-03-28T14:44:25.808Z,1.07
2018-03-28T14:46:52.512Z,1.10
2018-03-28T14:49:19.210Z,0.77
2018-03-28T14:51:45.913Z,0.87
2018-03-28T14:54:12.641Z,0.87
2018-03-28T14:56:39.346Z,1.00
2018-03-28T14:59:06.046Z,1.10
2018-03-28T15:01:32.761Z,1.03
2018-03-28T15:03:59.482Z,1.13
2018-03-28T15:06:26.181Z,1.00
2018-03-28T15:08:52.948Z,0.70
2018-03-28T15:11:19.617Z,1.00
2018-03-28T15:13:46.345Z,1.10
2018-03-28T15:16:13.098Z,0.90
2018-03-28T15:18:39.802Z,0.90
2018-03-28T15:21:06.514Z,1.17
2018-03-28T15:23:33.245Z,1.10
2018-03-28T15:25:59.975Z,0.90
2018-03-28T15:28:26.681Z,1.00
2018-03-28T15:30:53.410Z,1.00
2018-03-28T15:33:20.118Z,1.00
2018-03-28T15:35:46.824Z,1.33
2018-03-28T15:38:13.558Z,1.33
2018-03-28T15:40:40.275Z,0.80
2018-03-28T15:43:06.984Z,1.20
2018-03-28T15:45:33.689Z,0.90
2018-03-28T15:48:00.395Z,1.57
2018-03-28T15:50:27.117Z,1.10
2018-03-28T15:52:53.813Z,0.90
2018-03-28T15:55:20.518Z,1.03
2018-03-28T15:57:47.293Z,1.20
2018-03-28T16:00:13.996Z,0.97
2018-03-28T16:02:40.738Z,0.90
2018-03-28T16:05:07.445Z,1.10
2018-03-28T16:07:34.149Z,1.00
2018-03-28T16:10:00.850Z,1.57
2018-03-28T16:12:27.590Z,0.90
2018-03-28T16:14:54.318Z,0.87
2018-03-28T16:17:21.014Z,1.13
2018-03-28T16:19:47.720Z,1.10
2018-03-28T16:22:14.425Z,1.10
2018-03-28T16:24:41.131Z,1.00
2018-03-28T16:27:07.864Z,0.80
2018-03-28T16:29:34.568Z,1.10
2018-03-28T16:32:01.270Z,0.90
2018-03-28T16:34:27.969Z,1.03
2018-03-28T16:36:54.684Z,1.10
2018-03-28T16:39:21.441Z,1.00
2018-03-28T16:41:48.136Z,1.17
2018-03-28T16:44:14.841Z,1.10
2018-03-28T16:46:41.546Z,1.20
2018-03-28T16:49:08.246Z,1.40
2018-03-28T16:51:34.993Z,1.40
2018-03-28T16:54:01.733Z,1.20
2018-03-28T16:56:28.709Z,1.20
2018-03-28T16:58:55.433Z,1.33
2018-03-28T17:01:22.142Z,1.07
2018-03-28T17:03:48.884Z,0.90
2018-03-28T17:06:15.591Z,1.03
2018-03-28T17:08:42.286Z,1.10
2018-03-28T17:11:08.985Z,1.10
2018-03-28T17:13:35.685Z,1.30
2018-03-28T17:16:02.497Z,2.90
2018-03-28T17:18:29.201Z,1.20
2018-03-28T17:20:55.909Z,1.20
2018-03-28T17:23:22.614Z,1.37
2018-03-28T17:25:49.329Z,1.70
2018-03-28T17:28:16.252Z,15.47
2018-03-28T17:30:42.977Z,16.13
2018-03-28T17:33:09.685Z,5.50
2018-03-28T17:35:36.398Z,1.73
2018-03-28T17:38:03.120Z,1.30
2018-03-28T17:40:29.861Z,1.37
2018-03-28T17:42:56.571Z,1.70
2018-03-28T17:45:23.282Z,1.73
2018-03-28T17:47:49.990Z,2.00
2018-03-28T17:50:16.750Z,1.20
2018-03-28T17:52:43.506Z,1.30
2018-03-28T17:55:10.209Z,1.30
2018-03-28T17:57:36.914Z,1.20
2018-03-28T18:00:03.633Z,1.40
2018-03-28T18:02:30.350Z,1.10
2018-03-28T18:04:57.089Z,1.20
2018-03-28T18:07:23.797Z,1.63
2018-03-28T18:09:50.513Z,1.53
2018-03-28T18:12:17.250Z,1.50
2018-03-28T18:14:43.969Z,1.27
2018-03-28T18:17:10.693Z,1.30
2018-03-28T18:19:37.450Z,1.17
2018-03-28T18:22:04.165Z,1.10
2018-03-28T18:24:30.878Z,1.20
2018-03-28T18:26:57.595Z,1.33
2018-03-28T18:29:24.333Z,1.00
2018-03-28T18:31:51.049Z,1.10
2018-03-28T18:34:17.759Z,1.20
2018-03-28T18:36:44.468Z,1.10
2018-03-28T18:39:11.186Z,1.00
2018-03-28T18:41:37.944Z,0.97
2018-03-28T18:44:04.786Z,1.10
2018-03-28T18:46:31.501Z,1.20
2018-03-28T18:48:58.225Z,1.10
2018-03-28T18:51:24.937Z,1.20
2018-03-28T18:53:51.673Z,0.93
2018-03-28T18:56:18.381Z,1.03
2018-03-28T18:58:45.093Z,1.00
2018-03-28T19:01:11.793Z,1.23
2018-03-28T19:03:38.581Z,1.27
2018-03-28T19:06:05.309Z,0.90
2018-03-28T19:08:32.014Z,1.00
2018-03-28T19:10:58.727Z,1.10
2018-03-28T19:13:25.436Z,1.37
2018-03-28T19:15:52.161Z,1.50
2018-03-28T19:18:18.892Z,1.20
2018-03-28T19:20:45.597Z,1.30
2018-03-28T19:23:12.297Z,1.27
2018-03-28T19:25:38.996Z,1.63
2018-03-28T19:28:05.697Z,1.40
2018-03-28T19:30:32.454Z,1.30
2018-03-28T19:32:59.168Z,1.10
2018-03-28T19:35:25.883Z,1.80
2018-03-28T19:37:52.601Z,1.30
2018-03-28T19:40:19.308Z,1.03
2018-03-28T19:42:46.048Z,2.13
2018-03-28T19:45:12.749Z,1.50
2018-03-28T19:47:39.455Z,1.30
2018-03-28T19:50:06.149Z,1.10
2018-03-28T19:52:32.857Z,1.17
2018-03-28T19:54:59.631Z,1.10
2018-03-28T19:57:26.329Z,1.23
2018-03-28T19:59:53.033Z,1.30
2018-03-28T20:02:19.739Z,1.50
2018-03-28T20:04:46.440Z,1.20
2018-03-28T20:07:13.248Z,1.50
2018-03-28T20:09:39.953Z,1.20
2018-03-28T20:12:06.657Z,1.00
2018-03-28T20:14:33.444Z,1.20
2018-03-28T20:17:00.145Z,1.20
2018-03-28T20:19:26.907Z,1.70
2018-03-28T20:21:53.610Z,1.90
2018-03-28T20:24:20.325Z,2.40
2018-03-28T20:26:47.030Z,2.63
2018-03-28T20:29:13.732Z,3.60
2018-03-28T20:31:40.464Z,4.13
2018-03-28T20:34:07.165Z,4.80
2018-03-28T20:36:33.881Z,3.80
2018-03-28T20:39:00.589Z,3.70
2018-03-28T20:41:27.301Z,5.60
2018-03-28T20:43:54.037Z,4.00
2018-03-28T20:46:20.737Z,2.23
2018-03-28T20:48:47.439Z,1.43
2018-03-28T20:51:14.195Z,1.40
2018-03-28T20:53:40.892Z,1.30
2018-03-28T20:56:07.641Z,1.10
2018-03-28T20:58:34.361Z,1.37
2018-03-28T21:01:01.066Z,1.40
2018-03-28T21:03:27.774Z,1.47
2018-03-28T21:05:54.507Z,1.50
2018-03-28T21:08:21.255Z,1.30
2018-03-28T21:10:47.957Z,1.30
2018-03-28T21:13:14.664Z,1.10
2018-03-28T21:15:41.366Z,1.23
2018-03-28T21:18:08.073Z,1.10
2018-03-28T21:20:34.814Z,1.20
2018-03-28T21:23:01.519Z,1.40
2018-03-28T21:25:28.262Z,1.10
2018-03-28T21:27:54.960Z,1.27
2018-03-28T21:30:21.666Z,1.60
2018-03-28T21:32:48.427Z,1.47
2018-03-28T21:35:15.141Z,1.27
2018-03-28T21:37:41.870Z,1.87
2018-03-28T21:40:08.605Z,1.37
2018-03-28T21:42:35.337Z,1.93
2018-03-28T21:45:02.042Z,1.70
2018-03-28T21:47:28.755Z,1.83
2018-03-28T21:49:55.488Z,2.10
2018-03-28T21:52:22.193Z,2.20
2018-03-28T21:54:48.894Z,2.00
2018-03-28T21:57:15.625Z,2.00
2018-03-28T21:59:42.325Z,1.93
2018-03-28T22:02:09.025Z,1.80
2018-03-28T22:04:35.769Z,2.03
2018-03-28T22:07:02.480Z,2.03
2018-03-28T22:09:29.181Z,2.20
2018-03-28T22:11:55.877Z,2.00
2018-03-28T22:14:22.587Z,1.67
2018-03-28T22:16:49.349Z,2.10
2018-03-28T22:19:16.076Z,1.87
2018-03-28T22:21:42.791Z,1.53
2018-03-28T22:24:09.512Z,1.97
2018-03-28T22:26:36.220Z,2.20
2018-03-28T22:29:02.957Z,2.03
2018-03-28T22:31:29.682Z,1.90
2018-03-28T22:33:56.398Z,1.80
2018-03-28T22:36:23.108Z,1.60
2018-03-28T22:38:49.817Z,1.90
2018-03-28T22:41:16.583Z,1.50
2018-03-28T22:43:43.312Z,1.63
2018-03-28T22:46:10.021Z,1.80
2018-03-28T22:48:36.769Z,1.87
2018-03-28T22:51:03.470Z,1.90
2018-03-28T22:53:30.171Z,1.70
2018-03-28T22:55:56.901Z,2.30
2018-03-28T22:58:23.601Z,2.53
2018-03-28T23:00:50.333Z,2.23
2018-03-28T23:03:17.045Z,2.40
2018-03-28T23:05:43.745Z,2.47
2018-03-28T23:08:10.475Z,2.27
2018-03-28T23:10:37.196Z,1.93
2018-03-28T23:13:03.921Z,2.23
2018-03-28T23:15:30.622Z,2.10
2018-03-28T23:17:57.340Z,2.00
2018-03-28T23:20:24.096Z,2.43
2018-03-28T23:22:50.807Z,2.40
2018-03-28T23:25:17.506Z,2.20
2018-03-28T23:27:44.237Z,2.23
2018-03-28T23:30:10.949Z,2.30
2018-03-28T23:32:37.681Z,2.67
2018-03-28T23:35:04.388Z,2.20
2018-03-28T23:37:31.127Z,2.10
2018-03-28T23:39:57.886Z,2.40
2018-03-28T23:42:24.632Z,2.70
2018-03-28T23:44:51.370Z,2.40
2018-03-28T23:47:18.066Z,2.30
2018-03-28T23:49:44.780Z,2.23
2018-03-28T23:52:11.482Z,2.33
2018-03-28T23:54:38.191Z,2.30
2018-03-28T23:57:04.921Z,2.40
2018-03-28T23:59:31.616Z,2.20
